Terminal Aerodrome Forecast
Issued by NWS Newport/Morehead City, NC

Home | Current Version | Previous Version | Text Only | Print | Product List | Glossary On
Versions: 1 2 3 4 5 6 7 8 9 10 11 12 13 14 15 16 17 18 19
000
FTUS42 KMHX 212300
TAFEWN
TAF
KEWN 212325Z 2200/2224 21005KT P6SM BKN250
     FM220900 00000KT 4SM BR BKN250
     FM221200 27003KT P6SM BKN250
     FM221800 27005KT P6SM VCTS SCT050CB=

USA.gov is the U.S. government's official web portal to all federal, state and local government web resources and services.